sensor_id;sensor_type;location;lat;lon;timestamp;pressure;altitude;pressure_sealevel;temperature;humidity
56912;BME280;42800;53.928;27.662;2023-05-02T00:01:15;98740.06;;;4.39;100.00
56912;BME280;42800;53.928;27.662;2023-05-02T00:03:41;98728.22;;;4.43;100.00
56912;BME280;42800;53.928;27.662;2023-05-02T00:06:07;98740.06;;;4.39;100.00
56912;BME280;42800;53.928;27.662;2023-05-02T00:08:34;98743.56;;;4.39;100.00
56912;BME280;42800;53.928;27.662;2023-05-02T00:11:00;98739.94;;;4.35;100.00
56912;BME280;42800;53.928;27.662;2023-05-02T00:13:25;98753.88;;;4.34;100.00
56912;BME280;42800;53.928;27.662;2023-05-02T00:15:51;98765.50;;;4.34;100.00
56912;BME280;42800;53.928;27.662;2023-05-02T00:18:18;98744.59;;;4.35;100.00
56912;BME280;42800;53.928;27.662;2023-05-02T00:20:44;98737.91;;;4.32;100.00
56912;BME280;42800;53.928;27.662;2023-05-02T00:23:10;98729.44;;;4.34;100.00
56912;BME280;42800;53.928;27.662;2023-05-02T00:25:43;98739.34;;;4.30;100.00
56912;BME280;42800;53.928;27.662;2023-05-02T00:28:09;98732.03;;;4.30;100.00
56912;BME280;42800;53.928;27.662;2023-05-02T00:30:35;98727.03;;;4.32;100.00
56912;BME280;42800;53.928;27.662;2023-05-02T00:33:01;98746.25;;;4.27;100.00
56912;BME280;42800;53.928;27.662;2023-05-02T00:35:28;98739.34;;;4.30;100.00
56912;BME280;42800;53.928;27.662;2023-05-02T00:37:53;98727.03;;;4.32;100.00
56912;BME280;42800;53.928;27.662;2023-05-02T00:40:19;98726.78;;;4.25;100.00
56912;BME280;42800;53.928;27.662;2023-05-02T00:42:45;98737.78;;;4.29;100.00
56912;BME280;42800;53.928;27.662;2023-05-02T00:45:11;98721.84;;;4.27;100.00
56912;BME280;42800;53.928;27.662;2023-05-02T00:47:37;98728.59;;;4.21;100.00
56912;BME280;42800;53.928;27.662;2023-05-02T00:50:04;98726.19;;;4.19;100.00
56912;BME280;42800;53.928;27.662;2023-05-02T00:52:31;98734.81;;;4.21;100.00
56912;BME280;42800;53.928;27.662;2023-05-02T00:54:58;98738.78;;;4.24;100.00
56912;BME280;42800;53.928;27.662;2023-05-02T00:57:24;98733.69;;;4.22;100.00
56912;BME280;42800;53.928;27.662;2023-05-02T00:59:50;98727.16;;;4.23;100.00
56912;BME280;42800;53.928;27.662;2023-05-02T01:02:31;98731.63;;;4.19;100.00
56912;BME280;42800;53.928;27.662;2023-05-02T01:05:04;98746.00;;;4.20;100.00
56912;BME280;42800;53.928;27.662;2023-05-02T01:07:48;98747.47;;;4.17;100.00
56912;BME280;42800;53.928;27.662;2023-05-02T01:10:22;98749.16;;;4.22;100.00
56912;BME280;42800;53.928;27.662;2023-05-02T01:12:57;98761.16;;;4.21;100.00
56912;BME280;42800;53.928;27.662;2023-05-02T01:15:24;98749.50;;;4.20;100.00
56912;BME280;42800;53.928;27.662;2023-05-02T01:17:53;98762.13;;;4.16;100.00
56912;BME280;42800;53.928;27.662;2023-05-02T01:20:22;98759.69;;;4.23;100.00
56912;BME280;42800;53.928;27.662;2023-05-02T01:22:51;98757.91;;;4.28;100.00
56912;BME280;42800;53.928;27.662;2023-05-02T01:25:25;98755.19;;;4.28;100.00
56912;BME280;42800;53.928;27.662;2023-05-02T01:28:00;98755.38;;;4.22;100.00
56912;BME280;42800;53.928;27.662;2023-05-02T01:30:31;98734.81;;;4.21;100.00
56912;BME280;42800;53.928;27.662;2023-05-02T01:33:01;98733.91;;;4.17;100.00
56912;BME280;42800;53.928;27.662;2023-05-02T01:35:28;98747.00;;;4.15;100.00
56912;BME280;42800;53.928;27.662;2023-05-02T01:37:56;98749.38;;;4.17;100.00
56912;BME280;42800;53.928;27.662;2023-05-02T01:40:24;98750.19;;;4.17;100.00
56912;BME280;42800;53.928;27.662;2023-05-02T01:42:52;98758.09;;;4.22;100.00
56912;BME280;42800;53.928;27.662;2023-05-02T01:45:20;98750.31;;;4.21;100.00
56912;BME280;42800;53.928;27.662;2023-05-02T01:47:47;98753.81;;;4.21;100.00
56912;BME280;42800;53.928;27.662;2023-05-02T01:50:17;98756.50;;;4.21;100.00
56912;BME280;42800;53.928;27.662;2023-05-02T01:52:46;98761.16;;;4.21;100.00
56912;BME280;42800;53.928;27.662;2023-05-02T01:55:16;98756.38;;;4.18;100.00
56912;BME280;42800;53.928;27.662;2023-05-02T01:57:43;98755.66;;;4.09;100.00
56912;BME280;42800;53.928;27.662;2023-05-02T02:00:12;98749.38;;;4.17;100.00
56912;BME280;42800;53.928;27.662;2023-05-02T02:02:40;98744.28;;;4.15;100.00
56912;BME280;42800;53.928;27.662;2023-05-02T02:05:09;98741.25;;;3.96;100.00
56912;BME280;42800;53.928;27.662;2023-05-02T02:07:37;98712.13;;;4.05;100.00
56912;BME280;42800;53.928;27.662;2023-05-02T02:10:03;98708.75;;;4.08;100.00
56912;BME280;42800;53.928;27.662;2023-05-02T02:12:39;98706.72;;;4.05;100.00
56912;BME280;42800;53.928;27.662;2023-05-02T02:15:12;98703.53;;;4.03;100.00
56912;BME280;42800;53.928;27.662;2023-05-02T02:17:42;98716.41;;;4.06;100.00
56912;BME280;42800;53.928;27.662;2023-05-02T02:20:12;98725.38;;;4.07;100.00
56912;BME280;42800;53.928;27.662;2023-05-02T02:22:42;98720.50;;;4.00;100.00
56912;BME280;42800;53.928;27.662;2023-05-02T02:25:11;98727.22;;;3.94;100.00
56912;BME280;42800;53.928;27.662;2023-05-02T02:27:38;98720.63;;;4.04;100.00
56912;BME280;42800;53.928;27.662;2023-05-02T02:30:06;98719.47;;;4.05;100.00
56912;BME280;42800;53.928;27.662;2023-05-02T02:32:32;98721.06;;;4.06;100.00
56912;BME280;42800;53.928;27.662;2023-05-02T02:34:59;98721.06;;;4.06;100.00
56912;BME280;42800;53.928;27.662;2023-05-02T02:37:30;98700.38;;;4.01;100.00
56912;BME280;42800;53.928;27.662;2023-05-02T02:40:04;98716.03;;;3.95;100.00
56912;BME280;42800;53.928;27.662;2023-05-02T02:42:37;98720.31;;;3.96;100.00
56912;BME280;42800;53.928;27.662;2023-05-02T02:45:16;98763.06;;;3.99;100.00
56912;BME280;42800;53.928;27.662;2023-05-02T02:47:49;98720.06;;;3.89;100.00
56912;BME280;42800;53.928;27.662;2023-05-02T02:50:21;98673.84;;;3.86;100.00
56912;BME280;42800;53.928;27.662;2023-05-02T02:52:54;98670.41;;;3.97;100.00
56912;BME280;42800;53.928;27.662;2023-05-02T02:55:30;98669.94;;;3.95;100.00
56912;BME280;42800;53.928;27.662;2023-05-02T02:58:09;98689.16;;;4.03;100.00
56912;BME280;42800;53.928;27.662;2023-05-02T03:00:38;98698.16;;;4.15;100.00
56912;BME280;42800;53.928;27.662;2023-05-02T03:03:06;98756.56;;;4.13;100.00
56912;BME280;42800;53.928;27.662;2023-05-02T03:05:32;98760.81;;;4.43;100.00
56912;BME280;42800;53.928;27.662;2023-05-02T03:07:59;98738.13;;;4.60;100.00
56912;BME280;42800;53.928;27.662;2023-05-02T03:10:25;98755.72;;;4.87;100.00
56912;BME280;42800;53.928;27.662;2023-05-02T03:12:51;98925.13;;;5.61;100.00
56912;BME280;42800;53.928;27.662;2023-05-02T03:15:37;98954.91;;;6.28;100.00
56912;BME280;42800;53.928;27.662;2023-05-02T03:18:08;99057.78;;;6.96;100.00
56912;BME280;42800;53.928;27.662;2023-05-02T03:20:33;99094.66;;;7.58;100.00
56912;BME280;42800;53.928;27.662;2023-05-02T03:23:00;99173.78;;;7.58;100.00
56912;BME280;42800;53.928;27.662;2023-05-02T03:25:26;99181.34;;;8.17;100.00
56912;BME280;42800;53.928;27.662;2023-05-02T03:27:52;99192.38;;;8.65;100.00
56912;BME280;42800;53.928;27.662;2023-05-02T03:30:18;99196.25;;;9.27;100.00
56912;BME280;42800;53.928;27.662;2023-05-02T03:32:44;99227.75;;;9.21;100.00
56912;BME280;42800;53.928;27.662;2023-05-02T03:35:10;99243.88;;;9.42;100.00
56912;BME280;42800;53.928;27.662;2023-05-02T03:37:36;99257.63;;;9.61;100.00
56912;BME280;42800;53.928;27.662;2023-05-02T03:40:03;99262.53;;;9.87;95.18
56912;BME280;42800;53.928;27.662;2023-05-02T03:42:29;99275.56;;;10.49;96.28
56912;BME280;42800;53.928;27.662;2023-05-02T03:44:55;99290.69;;;9.88;84.23
56912;BME280;42800;53.928;27.662;2023-05-02T03:47:21;99288.66;;;11.21;81.03
56912;BME280;42800;53.928;27.662;2023-05-02T03:49:46;99290.28;;;11.48;82.88
56912;BME280;42800;53.928;27.662;2023-05-02T03:52:12;99293.56;;;12.07;81.11
56912;BME280;42800;53.928;27.662;2023-05-02T03:54:38;99308.34;;;11.76;77.26
56912;BME280;42800;53.928;27.662;2023-05-02T03:57:05;99290.44;;;11.59;78.79
56912;BME280;42800;53.928;27.662;2023-05-02T03:59:32;99301.28;;;12.28;74.77
56912;BME280;42800;53.928;27.662;2023-05-02T04:01:58;99303.06;;;11.87;71.33
56912;BME280;42800;53.928;27.662;2023-05-02T04:04:24;99298.88;;;12.90;69.76
56912;BME280;42800;53.928;27.662;2023-05-02T04:06:50;99299.13;;;12.44;70.32
56912;BME280;42800;53.928;27.662;2023-05-02T04:09:16;99301.94;;;12.82;70.86
56912;BME280;42800;53.928;27.662;2023-05-02T04:11:43;99308.13;;;12.75;66.77
56912;BME280;42800;53.928;27.662;2023-05-02T04:14:10;99301.81;;;14.04;65.79
56912;BME280;42800;53.928;27.662;2023-05-02T04:16:36;99301.88;;;14.15;67.16
56912;BME280;42800;53.928;27.662;2023-05-02T04:19:02;99313.47;;;13.80;65.22
56912;BME280;42800;53.928;27.662;2023-05-02T04:21:28;99310.84;;;12.71;66.27
56912;BME280;42800;53.928;27.662;2023-05-02T04:23:54;99304.94;;;13.44;65.65
56912;BME280;42800;53.928;27.662;2023-05-02T04:26:20;99310.56;;;13.62;65.95
56912;BME280;42800;53.928;27.662;2023-05-02T04:28:46;99315.41;;;13.76;64.69
56912;BME280;42800;53.928;27.662;2023-05-02T04:31:12;99312.91;;;13.19;63.76
56912;BME280;42800;53.928;27.662;2023-05-02T04:33:38;99307.59;;;13.33;65.03
56912;BME280;42800;53.928;27.662;2023-05-02T04:36:05;99309.25;;;13.93;65.21
56912;BME280;42800;53.928;27.662;2023-05-02T04:38:31;99306.34;;;12.26;65.88
56912;BME280;42800;53.928;27.662;2023-05-02T04:40:56;99311.50;;;13.80;65.08
56912;BME280;42800;53.928;27.662;2023-05-02T04:43:22;99313.31;;;13.58;63.31
56912;BME280;42800;53.928;27.662;2023-05-02T04:45:48;99312.94;;;13.60;63.81
56912;BME280;42800;53.928;27.662;2023-05-02T04:48:15;99312.38;;;13.95;61.59
56912;BME280;42800;53.928;27.662;2023-05-02T04:50:41;99313.72;;;13.19;63.50
56912;BME280;42800;53.928;27.662;2023-05-02T04:53:07;99312.66;;;13.28;65.45
56912;BME280;42800;53.928;27.662;2023-05-02T04:55:33;99315.94;;;13.03;65.95
56912;BME280;42800;53.928;27.662;2023-05-02T04:57:59;99316.84;;;14.14;64.87
56912;BME280;42800;53.928;27.662;2023-05-02T05:00:24;99316.22;;;14.49;62.70
56912;BME280;42800;53.928;27.662;2023-05-02T05:02:50;99318.19;;;14.49;61.78
56912;BME280;42800;53.928;27.662;2023-05-02T05:05:18;99313.72;;;16.07;60.38
56912;BME280;42800;53.928;27.662;2023-05-02T05:07:43;99308.56;;;15.19;58.83
56912;BME280;42800;53.928;27.662;2023-05-02T05:10:10;99308.19;;;15.06;60.34
56912;BME280;42800;53.928;27.662;2023-05-02T05:12:36;99313.88;;;13.82;61.70
56912;BME280;42800;53.928;27.662;2023-05-02T05:15:02;99310.69;;;13.76;60.79
56912;BME280;42800;53.928;27.662;2023-05-02T05:17:29;99311.75;;;14.20;61.12
56912;BME280;42800;53.928;27.662;2023-05-02T05:19:55;99301.22;;;13.74;62.16
56912;BME280;42800;53.928;27.662;2023-05-02T05:22:21;99307.25;;;13.42;62.06
56912;BME280;42800;53.928;27.662;2023-05-02T05:24:51;99302.56;;;14.74;61.22
56912;BME280;42800;53.928;27.662;2023-05-02T05:27:17;99296.25;;;14.77;60.22
56912;BME280;42800;53.928;27.662;2023-05-02T05:29:43;99301.84;;;15.06;59.32
56912;BME280;42800;53.928;27.662;2023-05-02T05:32:09;99300.53;;;14.53;58.84
56912;BME280;42800;53.928;27.662;2023-05-02T05:34:35;99301.88;;;15.10;57.38
56912;BME280;42800;53.928;27.662;2023-05-02T05:37:02;99298.34;;;15.88;57.85
56912;BME280;42800;53.928;27.662;2023-05-02T05:39:28;99300.69;;;15.03;57.36
56912;BME280;42800;53.928;27.662;2023-05-02T05:41:55;99285.94;;;16.50;57.32
56912;BME280;42800;53.928;27.662;2023-05-02T05:44:21;99288.16;;;16.87;55.64
56912;BME280;42800;53.928;27.662;2023-05-02T05:46:47;99290.13;;;17.42;54.86
56912;BME280;42800;53.928;27.662;2023-05-02T05:49:15;99278.06;;;16.41;54.39
56912;BME280;42800;53.928;27.662;2023-05-02T05:51:41;99282.31;;;17.33;55.07
56912;BME280;42800;53.928;27.662;2023-05-02T05:54:07;99285.91;;;17.79;53.82
56912;BME280;42800;53.928;27.662;2023-05-02T05:56:34;99291.56;;;16.21;54.81
56912;BME280;42800;53.928;27.662;2023-05-02T05:58:59;99285.09;;;17.33;54.64
56912;BME280;42800;53.928;27.662;2023-05-02T06:01:25;99281.22;;;16.43;54.61
56912;BME280;42800;53.928;27.662;2023-05-02T06:03:51;99281.53;;;16.63;55.60
56912;BME280;42800;53.928;27.662;2023-05-02T06:06:17;99270.16;;;16.43;55.62
56912;BME280;42800;53.928;27.662;2023-05-02T06:08:43;99279.75;;;15.95;56.41
56912;BME280;42800;53.928;27.662;2023-05-02T06:11:09;99275.63;;;17.72;55.52
56912;BME280;42800;53.928;27.662;2023-05-02T06:13:36;99274.78;;;18.20;53.94
56912;BME280;42800;53.928;27.662;2023-05-02T06:16:02;99273.28;;;18.12;54.55
56912;BME280;42800;53.928;27.662;2023-05-02T06:18:28;99268.03;;;16.72;55.25
56912;BME280;42800;53.928;27.662;2023-05-02T06:20:54;99259.31;;;16.74;54.87
56912;BME280;42800;53.928;27.662;2023-05-02T06:23:20;99264.41;;;16.89;55.04
56912;BME280;42800;53.928;27.662;2023-05-02T06:25:45;99258.44;;;17.92;53.70
56912;BME280;42800;53.928;27.662;2023-05-02T06:28:11;99265.66;;;18.54;52.92
56912;BME280;42800;53.928;27.662;2023-05-02T06:30:38;99262.91;;;17.33;54.07
56912;BME280;42800;53.928;27.662;2023-05-02T06:33:04;99255.13;;;17.17;54.02
56912;BME280;42800;53.928;27.662;2023-05-02T06:35:30;99252.59;;;17.82;53.89
56912;BME280;42800;53.928;27.662;2023-05-02T06:37:56;99258.19;;;18.47;53.79
56912;BME280;42800;53.928;27.662;2023-05-02T06:40:22;99249.88;;;18.47;52.58
56912;BME280;42800;53.928;27.662;2023-05-02T06:42:48;99253.50;;;19.02;52.17
56912;BME280;42800;53.928;27.662;2023-05-02T06:45:14;99246.59;;;17.87;52.51
56912;BME280;42800;53.928;27.662;2023-05-02T06:47:40;99253.06;;;18.11;53.18
56912;BME280;42800;53.928;27.662;2023-05-02T06:50:07;99243.44;;;18.23;52.06
56912;BME280;42800;53.928;27.662;2023-05-02T06:52:33;99247.22;;;18.67;51.28
56912;BME280;42800;53.928;27.662;2023-05-02T06:54:59;99247.75;;;19.16;51.67
56912;BME280;42800;53.928;27.662;2023-05-02T06:57:25;99239.50;;;18.82;51.23
56912;BME280;42800;53.928;27.662;2023-05-02T06:59:51;99233.47;;;17.92;51.79
56912;BME280;42800;53.928;27.662;2023-05-02T07:02:17;99244.13;;;18.31;52.12
56912;BME280;42800;53.928;27.662;2023-05-02T07:04:43;99238.88;;;17.64;52.54
56912;BME280;42800;53.928;27.662;2023-05-02T07:07:09;99244.16;;;18.89;51.50
56912;BME280;42800;53.928;27.662;2023-05-02T07:09:35;99235.28;;;20.15;51.12
56912;BME280;42800;53.928;27.662;2023-05-02T07:12:01;99241.59;;;18.44;51.27
56912;BME280;42800;53.928;27.662;2023-05-02T07:14:27;99238.16;;;19.68;51.20
56912;BME280;42800;53.928;27.662;2023-05-02T07:16:53;99239.56;;;19.33;51.26
56912;BME280;42800;53.928;27.662;2023-05-02T07:19:19;99235.03;;;19.15;49.97
56912;BME280;42800;53.928;27.662;2023-05-02T07:21:46;99230.94;;;19.23;50.94
56912;BME280;42800;53.928;27.662;2023-05-02T07:24:12;99238.13;;;19.91;49.99
56912;BME280;42800;53.928;27.662;2023-05-02T07:26:38;99237.44;;;20.07;50.23
56912;BME280;42800;53.928;27.662;2023-05-02T07:29:04;99231.97;;;20.80;52.40
56912;BME280;42800;53.928;27.662;2023-05-02T07:31:31;99235.13;;;20.02;49.12
56912;BME280;42800;53.928;27.662;2023-05-02T07:33:57;99230.06;;;19.77;49.62
56912;BME280;42800;53.928;27.662;2023-05-02T07:36:23;99225.94;;;20.81;49.70
56912;BME280;42800;53.928;27.662;2023-05-02T07:38:50;99227.09;;;20.28;49.49
56912;BME280;42800;53.928;27.662;2023-05-02T07:41:16;99224.59;;;18.38;50.70
56912;BME280;42800;53.928;27.662;2023-05-02T07:43:41;99228.41;;;18.21;51.37
56912;BME280;42800;53.928;27.662;2023-05-02T07:46:07;99220.56;;;18.46;51.75
56912;BME280;42800;53.928;27.662;2023-05-02T07:48:33;99222.28;;;18.94;51.71
56912;BME280;42800;53.928;27.662;2023-05-02T07:51:05;99219.00;;;18.72;51.77
56912;BME280;42800;53.928;27.662;2023-05-02T07:53:31;99222.81;;;19.36;51.72
56912;BME280;42800;53.928;27.662;2023-05-02T07:55:58;99214.78;;;19.85;51.83
56912;BME280;42800;53.928;27.662;2023-05-02T07:58:24;99217.09;;;18.96;51.74
56912;BME280;42800;53.928;27.662;2023-05-02T08:00:49;99215.97;;;19.17;51.11
56912;BME280;42800;53.928;27.662;2023-05-02T08:03:15;99210.69;;;19.93;50.33
56912;BME280;42800;53.928;27.662;2023-05-02T08:05:41;99211.78;;;19.52;50.93
56912;BME280;42800;53.928;27.662;2023-05-02T08:08:07;99210.91;;;18.85;51.23
56912;BME280;42800;53.928;27.662;2023-05-02T08:10:33;99210.28;;;18.74;50.07
56912;BME280;42800;53.928;27.662;2023-05-02T08:13:00;99208.00;;;19.19;50.06
56912;BME280;42800;53.928;27.662;2023-05-02T08:15:26;99207.69;;;19.37;49.79
56912;BME280;42800;53.928;27.662;2023-05-02T08:17:52;99197.19;;;20.12;49.86
56912;BME280;42800;53.928;27.662;2023-05-02T08:20:18;99199.78;;;20.59;48.99
56912;BME280;42800;53.928;27.662;2023-05-02T08:22:44;99196.50;;;19.41;49.40
56912;BME280;42800;53.928;27.662;2023-05-02T08:25:09;99188.50;;;20.10;49.22
56912;BME280;42800;53.928;27.662;2023-05-02T08:27:35;99196.59;;;20.60;48.40
56912;BME280;42800;53.928;27.662;2023-05-02T08:30:02;99199.22;;;20.84;47.83
56912;BME280;42800;53.928;27.662;2023-05-02T08:32:28;99198.75;;;20.33;48.45
56912;BME280;42800;53.928;27.662;2023-05-02T08:34:54;99200.72;;;19.72;48.24
56912;BME280;42800;53.928;27.662;2023-05-02T08:37:21;99200.94;;;18.88;49.17
56912;BME280;42800;53.928;27.662;2023-05-02T08:39:47;99198.88;;;18.92;48.97
56912;BME280;42800;53.928;27.662;2023-05-02T08:42:13;99201.66;;;18.92;49.54
56912;BME280;42800;53.928;27.662;2023-05-02T08:44:39;99192.25;;;19.09;49.52
56912;BME280;42800;53.928;27.662;2023-05-02T08:47:05;99189.19;;;19.03;49.37
56912;BME280;42800;53.928;27.662;2023-05-02T08:49:36;99179.16;;;19.57;48.85
56912;BME280;42800;53.928;27.662;2023-05-02T08:52:03;99182.72;;;19.57;49.21
56912;BME280;42800;53.928;27.662;2023-05-02T08:54:31;99184.56;;;19.87;48.97
56912;BME280;42800;53.928;27.662;2023-05-02T08:56:57;99179.91;;;20.01;49.14
56912;BME280;42800;53.928;27.662;2023-05-02T08:59:24;99174.13;;;18.77;48.85
56912;BME280;42800;53.928;27.662;2023-05-02T09:01:54;99158.81;;;19.16;48.68
56912;BME280;42800;53.928;27.662;2023-05-02T09:04:26;99161.22;;;19.81;48.64
56912;BME280;42800;53.928;27.662;2023-05-02T09:06:55;99176.66;;;19.62;47.14
56912;BME280;42800;53.928;27.662;2023-05-02T09:09:21;99162.03;;;20.58;47.00
56912;BME280;42800;53.928;27.662;2023-05-02T09:11:48;99158.22;;;21.92;47.54
56912;BME280;42800;53.928;27.662;2023-05-02T09:14:15;99146.22;;;22.07;44.71
56912;BME280;42800;53.928;27.662;2023-05-02T09:16:42;99136.38;;;20.66;46.08
56912;BME280;42800;53.928;27.662;2023-05-02T09:19:08;99133.88;;;21.50;46.78
56912;BME280;42800;53.928;27.662;2023-05-02T09:21:36;99138.25;;;21.19;45.69
56912;BME280;42800;53.928;27.662;2023-05-02T09:24:14;99119.78;;;20.43;47.17
56912;BME280;42800;53.928;27.662;2023-05-02T09:26:40;99118.78;;;20.86;47.28
56912;BME280;42800;53.928;27.662;2023-05-02T09:29:06;99120.72;;;20.73;46.16
56912;BME280;42800;53.928;27.662;2023-05-02T09:31:34;99127.38;;;20.75;45.94
56912;BME280;42800;53.928;27.662;2023-05-02T09:34:07;99112.16;;;20.96;46.61
56912;BME280;42800;53.928;27.662;2023-05-02T09:36:38;99103.91;;;20.24;47.17
56912;BME280;42800;53.928;27.662;2023-05-02T09:39:08;99106.31;;;20.21;47.43
56912;BME280;42800;53.928;27.662;2023-05-02T09:41:38;99100.84;;;21.32;46.99
56912;BME280;42800;53.928;27.662;2023-05-02T09:44:08;99106.22;;;20.94;47.01
56912;BME280;42800;53.928;27.662;2023-05-02T09:46:38;99092.06;;;20.36;47.05
56912;BME280;42800;53.928;27.662;2023-05-02T09:49:05;99099.72;;;19.95;47.72
56912;BME280;42800;53.928;27.662;2023-05-02T09:51:31;99092.88;;;21.18;47.02
56912;BME280;42800;53.928;27.662;2023-05-02T09:53:58;99088.88;;;22.19;45.50
56912;BME280;42800;53.928;27.662;2023-05-02T09:56:24;99091.25;;;21.04;46.42
56912;BME280;42800;53.928;27.662;2023-05-02T09:58:50;99087.00;;;21.29;46.28
56912;BME280;42800;53.928;27.662;2023-05-02T10:01:16;99084.50;;;20.56;46.77
56912;BME280;42800;53.928;27.662;2023-05-02T10:03:45;99094.31;;;19.88;46.99
56912;BME280;42800;53.928;27.662;2023-05-02T10:06:12;99082.31;;;19.91;47.38
56912;BME280;42800;53.928;27.662;2023-05-02T10:08:41;99080.13;;;20.72;47.72
56912;BME280;42800;53.928;27.662;2023-05-02T10:11:08;99074.59;;;19.83;46.65
56912;BME280;42800;53.928;27.662;2023-05-02T10:13:37;99071.66;;;20.59;47.32
56912;BME280;42800;53.928;27.662;2023-05-02T10:16:05;99080.19;;;21.01;46.98
56912;BME280;42800;53.928;27.662;2023-05-02T10:18:37;99079.03;;;21.60;46.37
56912;BME280;42800;53.928;27.662;2023-05-02T10:21:07;99065.13;;;20.33;46.44
56912;BME280;42800;53.928;27.662;2023-05-02T10:23:34;99071.16;;;20.64;47.72
56912;BME280;42800;53.928;27.662;2023-05-02T10:26:00;99077.28;;;19.86;46.97
56912;BME280;42800;53.928;27.662;2023-05-02T10:28:27;99067.91;;;20.49;48.55
56912;BME280;42800;53.928;27.662;2023-05-02T10:30:54;99071.34;;;19.84;47.31
56912;BME280;42800;53.928;27.662;2023-05-02T10:33:22;99063.47;;;19.99;47.87
56912;BME280;42800;53.928;27.662;2023-05-02T10:35:48;99053.16;;;20.00;47.71
56912;BME280;42800;53.928;27.662;2023-05-02T10:38:16;99049.25;;;20.66;47.99
56912;BME280;42800;53.928;27.662;2023-05-02T10:40:48;99045.31;;;20.63;48.65
56912;BME280;42800;53.928;27.662;2023-05-02T10:43:21;99045.38;;;21.22;48.88
56912;BME280;42800;53.928;27.662;2023-05-02T10:45:48;99045.38;;;21.80;48.51
56912;BME280;42800;53.928;27.662;2023-05-02T10:48:17;99038.78;;;20.86;47.48
56912;BME280;42800;53.928;27.662;2023-05-02T10:50:45;99029.19;;;20.87;46.92
56912;BME280;42800;53.928;27.662;2023-05-02T10:53:28;99042.84;;;20.49;47.62
56912;BME280;42800;53.928;27.662;2023-05-02T10:56:10;99038.66;;;19.88;47.25
56912;BME280;42800;53.928;27.662;2023-05-02T10:58:36;99045.69;;;19.37;48.36
56912;BME280;42800;53.928;27.662;2023-05-02T11:04:04;99030.25;;;19.92;49.71
56912;BME280;42800;53.928;27.662;2023-05-02T11:06:31;99025.31;;;19.43;49.00
56912;BME280;42800;53.928;27.662;2023-05-02T11:09:33;99026.72;;;19.32;49.29
56912;BME280;42800;53.928;27.662;2023-05-02T11:12:00;99015.03;;;19.60;49.76
56912;BME280;42800;53.928;27.662;2023-05-02T11:14:45;99010.94;;;19.85;48.33
56912;BME280;42800;53.928;27.662;2023-05-02T11:17:12;99013.66;;;19.48;47.72
56912;BME280;42800;53.928;27.662;2023-05-02T11:22:56;98981.59;;;20.00;49.39
56912;BME280;42800;53.928;27.662;2023-05-02T11:25:36;99000.84;;;19.74;49.05
56912;BME280;42800;53.928;27.662;2023-05-02T11:28:04;98987.38;;;19.53;49.16
56912;BME280;42800;53.928;27.662;2023-05-02T11:30:44;98986.03;;;19.21;48.78
56912;BME280;42800;53.928;27.662;2023-05-02T11:33:16;98989.09;;;19.67;49.17
56912;BME280;42800;53.928;27.662;2023-05-02T11:35:46;98979.75;;;19.93;48.76
56912;BME280;42800;53.928;27.662;2023-05-02T11:38:18;98980.91;;;19.40;49.37
56912;BME280;42800;53.928;27.662;2023-05-02T11:40:49;98968.84;;;18.87;49.94
56912;BME280;42800;53.928;27.662;2023-05-02T11:43:18;98953.19;;;18.96;49.64
56912;BME280;42800;53.928;27.662;2023-05-02T11:45:45;98948.72;;;18.79;49.19
56912;BME280;42800;53.928;27.662;2023-05-02T11:48:14;98956.41;;;18.71;48.78
56912;BME280;42800;53.928;27.662;2023-05-02T11:50:41;98949.56;;;18.99;48.51
56912;BME280;42800;53.928;27.662;2023-05-02T11:53:09;98933.00;;;19.32;49.09
56912;BME280;42800;53.928;27.662;2023-05-02T11:55:36;98934.75;;;19.42;47.81
56912;BME280;42800;53.928;27.662;2023-05-02T11:58:02;98938.34;;;19.95;48.42
56912;BME280;42800;53.928;27.662;2023-05-02T12:00:28;98949.66;;;19.32;48.20
56912;BME280;42800;53.928;27.662;2023-05-02T12:02:54;98939.22;;;19.76;47.81
56912;BME280;42800;53.928;27.662;2023-05-02T12:05:26;98923.81;;;19.15;48.57
56912;BME280;42800;53.928;27.662;2023-05-02T12:07:53;98921.91;;;19.68;49.86
56912;BME280;42800;53.928;27.662;2023-05-02T12:10:19;98916.06;;;19.63;49.68
56912;BME280;42800;53.928;27.662;2023-05-02T12:12:46;98917.00;;;19.20;49.56
56912;BME280;42800;53.928;27.662;2023-05-02T12:15:12;98917.03;;;19.72;49.89
56912;BME280;42800;53.928;27.662;2023-05-02T12:17:39;98915.81;;;19.37;49.30
56912;BME280;42800;53.928;27.662;2023-05-02T12:20:08;98928.00;;;19.43;49.58
56912;BME280;42800;53.928;27.662;2023-05-02T12:22:34;98926.09;;;19.20;50.26
56912;BME280;42800;53.928;27.662;2023-05-02T12:25:00;98920.56;;;19.57;50.61
56912;BME280;42800;53.928;27.662;2023-05-02T12:27:28;98908.16;;;19.05;50.37
56912;BME280;42800;53.928;27.662;2023-05-02T12:29:55;98919.94;;;19.29;50.45
56912;BME280;42800;53.928;27.662;2023-05-02T12:32:27;98916.63;;;18.98;50.70
56912;BME280;42800;53.928;27.662;2023-05-02T12:34:53;98912.78;;;19.12;51.07
56912;BME280;42800;53.928;27.662;2023-05-02T12:37:21;98903.56;;;19.35;50.71
56912;BME280;42800;53.928;27.662;2023-05-02T12:39:47;98901.78;;;19.24;51.00
56912;BME280;42800;53.928;27.662;2023-05-02T12:42:15;98892.56;;;19.47;50.71
56912;BME280;42800;53.928;27.662;2023-05-02T12:44:42;98902.97;;;19.43;51.02
56912;BME280;42800;53.928;27.662;2023-05-02T12:47:11;98907.31;;;19.44;51.18
56912;BME280;42800;53.928;27.662;2023-05-02T12:49:49;98904.44;;;19.12;51.35
56912;BME280;42800;53.928;27.662;2023-05-02T12:52:16;98899.59;;;18.96;51.83
56912;BME280;42800;53.928;27.662;2023-05-02T12:54:41;98904.09;;;19.30;51.25
56912;BME280;42800;53.928;27.662;2023-05-02T12:57:08;98889.19;;;19.20;50.73
56912;BME280;42800;53.928;27.662;2023-05-02T12:59:34;98882.13;;;19.15;51.13